createdAt,value
2023-04-07T00:01:40.602Z,23.03
2023-04-07T00:04:07.317Z,21.90
2023-04-07T00:06:33.950Z,20.67
2023-04-07T00:09:00.909Z,25.30
2023-04-07T00:11:27.613Z,25.00
2023-04-07T00:13:54.243Z,23.10
2023-04-07T00:16:20.967Z,24.40
2023-04-07T00:18:47.496Z,22.00
2023-04-07T00:21:14.031Z,27.17
2023-04-07T00:23:40.472Z,24.73
2023-04-07T00:26:06.925Z,27.17
2023-04-07T00:28:33.378Z,26.70
2023-04-07T00:30:59.813Z,26.47
2023-04-07T00:33:26.538Z,25.20
2023-04-07T00:35:54.441Z,22.93
2023-04-07T00:38:21.219Z,27.90
2023-04-07T00:40:47.666Z,26.40
2023-04-07T00:43:14.103Z,25.60
2023-04-07T00:45:40.816Z,25.10
2023-04-07T00:48:07.394Z,25.87
2023-04-07T00:50:33.885Z,31.10
2023-04-07T00:53:02.179Z,29.67
2023-04-07T00:55:28.978Z,27.53
2023-04-07T00:57:55.635Z,25.20
2023-04-07T01:00:22.107Z,27.33
2023-04-07T01:03:02.106Z,24.30
2023-04-07T01:05:56.326Z,24.63
2023-04-07T01:08:31.802Z,24.53
2023-04-07T01:11:11.855Z,27.13
2023-04-07T01:13:52.396Z,26.30
2023-04-07T01:16:31.401Z,28.63
2023-04-07T01:19:21.604Z,27.43
2023-04-07T01:21:52.910Z,26.93
2023-04-07T01:24:19.330Z,26.30
2023-04-07T01:26:47.689Z,25.77
2023-04-07T01:29:35.510Z,30.17
2023-04-07T01:32:04.267Z,27.13
2023-04-07T01:34:32.757Z,31.53
2023-04-07T01:37:02.399Z,29.40
2023-04-07T01:39:30.079Z,29.50
2023-04-07T01:41:58.009Z,28.07
2023-04-07T01:44:26.161Z,28.93
2023-04-07T01:46:54.096Z,30.03
2023-04-07T01:49:21.046Z,30.60
2023-04-07T01:51:50.386Z,32.53
2023-04-07T01:54:18.139Z,30.60
2023-04-07T01:56:45.243Z,30.97
2023-04-07T01:59:11.851Z,33.77
2023-04-07T02:01:38.619Z,29.63
2023-04-07T02:04:12.511Z,32.27
2023-04-07T02:06:44.757Z,31.83
2023-04-07T02:09:15.413Z,33.10
2023-04-07T02:11:43.823Z,32.10
2023-04-07T02:14:11.395Z,30.87
2023-04-07T02:16:39.500Z,35.00
2023-04-07T02:19:06.190Z,28.80
2023-04-07T02:21:35.795Z,31.30
2023-04-07T02:24:06.368Z,31.50
2023-04-07T02:26:35.505Z,31.40
2023-04-07T02:29:03.445Z,31.30
2023-04-07T02:31:30.452Z,34.27
2023-04-07T02:33:57.000Z,31.37
2023-04-07T02:36:23.671Z,31.20
2023-04-07T02:38:50.390Z,32.10
2023-04-07T02:41:16.917Z,33.40
2023-04-07T02:43:43.367Z,32.80
2023-04-07T02:46:09.861Z,34.10
2023-04-07T02:48:36.333Z,39.17
2023-04-07T02:51:02.784Z,38.30
2023-04-07T02:53:29.242Z,38.83
2023-04-07T02:55:55.688Z,40.93
2023-04-07T02:58:22.334Z,44.57
2023-04-07T03:00:50.692Z,39.77
2023-04-07T03:03:17.444Z,44.90
2023-04-07T03:05:44.139Z,45.00
2023-04-07T03:08:12.816Z,43.97
2023-04-07T03:10:39.950Z,48.00
2023-04-07T03:13:08.320Z,48.73
2023-04-07T03:15:34.871Z,43.63
2023-04-07T03:18:01.389Z,49.60
2023-04-07T03:20:27.878Z,47.90
2023-04-07T03:22:54.291Z,42.80
2023-04-07T03:25:21.537Z,47.40
2023-04-07T03:27:47.921Z,50.07
2023-04-07T03:30:14.428Z,45.03
2023-04-07T03:32:41.020Z,46.27
2023-04-07T03:35:07.980Z,48.83
2023-04-07T03:37:34.417Z,45.97
2023-04-07T03:40:01.282Z,51.57
2023-04-07T03:42:27.779Z,44.50
2023-04-07T03:44:54.283Z,48.83
2023-04-07T03:47:20.773Z,46.40
2023-04-07T03:49:47.207Z,47.90
2023-04-07T03:52:13.693Z,38.77
2023-04-07T03:54:40.399Z,42.60
2023-04-07T03:57:06.954Z,41.47
2023-04-07T03:59:33.487Z,39.83
2023-04-07T04:02:00.147Z,38.73
2023-04-07T04:04:26.740Z,39.13
2023-04-07T04:06:53.340Z,41.97
2023-04-07T04:09:20.787Z,34.67
2023-04-07T04:11:47.327Z,38.57
2023-04-07T04:14:13.804Z,38.33
2023-04-07T04:16:40.227Z,41.67
2023-04-07T04:19:06.705Z,43.07
2023-04-07T04:21:33.167Z,38.00
2023-04-07T04:23:59.618Z,42.60
2023-04-07T04:26:26.283Z,39.00
2023-04-07T04:28:55.401Z,42.97
2023-04-07T04:31:21.897Z,41.07
2023-04-07T04:33:48.366Z,40.47
2023-04-07T04:36:14.845Z,41.10
2023-04-07T04:38:41.335Z,46.27
2023-04-07T04:41:07.809Z,42.77
2023-04-07T04:43:34.301Z,39.17
2023-04-07T04:46:00.849Z,38.70
2023-04-07T04:48:27.345Z,42.97
2023-04-07T04:50:53.928Z,38.43
2023-04-07T04:53:20.363Z,37.60
2023-04-07T04:55:51.847Z,39.43
2023-04-07T04:58:19.324Z,44.10
2023-04-07T05:00:45.861Z,44.30
2023-04-07T05:03:12.765Z,42.40
2023-04-07T05:05:39.523Z,40.13
2023-04-07T05:08:06.133Z,42.47
2023-04-07T05:10:32.632Z,38.17
2023-04-07T05:12:59.077Z,42.00
2023-04-07T05:15:25.766Z,37.37
2023-04-07T05:17:52.296Z,35.13
2023-04-07T05:20:18.874Z,37.43
2023-04-07T05:22:45.403Z,44.70
2023-04-07T05:25:11.869Z,35.70
2023-04-07T05:27:38.308Z,39.00
2023-04-07T05:30:05.449Z,35.70
2023-04-07T05:32:31.925Z,38.60
2023-04-07T05:34:58.445Z,38.93
2023-04-07T05:37:24.951Z,35.30
2023-04-07T05:39:51.605Z,34.20
2023-04-07T05:42:18.268Z,38.20
2023-04-07T05:44:45.676Z,39.43
2023-04-07T05:47:12.126Z,39.97
2023-04-07T05:49:45.759Z,34.80
2023-04-07T05:52:13.124Z,36.70
2023-04-07T05:54:42.514Z,39.07
2023-04-07T05:57:09.238Z,37.03
2023-04-07T05:59:36.700Z,30.00
2023-04-07T06:02:03.920Z,33.40
2023-04-07T06:04:30.465Z,38.77
2023-04-07T06:06:56.932Z,27.37
2023-04-07T06:09:23.627Z,36.03
2023-04-07T06:11:50.612Z,31.33
2023-04-07T06:14:17.630Z,31.53
2023-04-07T06:16:44.209Z,26.47
2023-04-07T06:19:10.969Z,33.37
2023-04-07T06:21:37.474Z,31.87
2023-04-07T06:24:03.917Z,30.13
2023-04-07T06:26:30.709Z,31.93
2023-04-07T06:28:58.114Z,31.00
2023-04-07T06:31:25.470Z,27.20
2023-04-07T06:33:51.942Z,33.00
2023-04-07T06:36:18.583Z,30.60
2023-04-07T06:38:45.035Z,31.47
2023-04-07T06:41:16.810Z,31.50
2023-04-07T06:43:49.643Z,29.87
2023-04-07T06:46:16.387Z,30.50
2023-04-07T06:48:43.057Z,26.30
2023-04-07T06:51:09.601Z,31.57
2023-04-07T06:53:36.464Z,28.27
2023-04-07T06:56:08.082Z,27.00
2023-04-07T06:58:35.862Z,26.40
2023-04-07T07:01:03.942Z,25.20
2023-04-07T07:03:31.660Z,33.80
2023-04-07T07:06:01.816Z,32.10
2023-04-07T07:08:29.161Z,28.30
2023-04-07T07:10:56.138Z,29.37
2023-04-07T07:13:24.462Z,29.57
2023-04-07T07:15:51.787Z,33.43
2023-04-07T07:18:19.345Z,30.07
2023-04-07T07:20:46.533Z,30.47
2023-04-07T07:23:13.055Z,30.10
2023-04-07T07:25:39.573Z,28.20
2023-04-07T07:28:06.222Z,30.00
2023-04-07T07:30:32.821Z,26.90
2023-04-07T07:32:59.289Z,27.13
2023-04-07T07:35:26.033Z,31.50
2023-04-07T07:37:52.607Z,26.77
2023-04-07T07:40:19.139Z,33.70
2023-04-07T07:42:46.859Z,27.40
2023-04-07T07:45:13.946Z,29.07
2023-04-07T07:47:41.092Z,27.10
2023-04-07T07:50:08.107Z,28.57
2023-04-07T07:52:34.651Z,28.03
2023-04-07T07:55:01.125Z,26.70
2023-04-07T07:57:27.565Z,30.30
2023-04-07T07:59:54.130Z,27.53
2023-04-07T08:02:20.711Z,30.67
2023-04-07T08:04:47.313Z,30.20
2023-04-07T08:07:13.929Z,34.20
2023-04-07T08:09:40.406Z,29.23
2023-04-07T08:12:06.914Z,27.80
2023-04-07T08:14:33.444Z,32.83
2023-04-07T08:16:59.902Z,30.53
2023-04-07T08:19:26.684Z,28.40
2023-04-07T08:21:53.280Z,25.23
2023-04-07T08:24:19.721Z,31.07
2023-04-07T08:26:46.142Z,30.93
2023-04-07T08:29:12.597Z,31.97
2023-04-07T08:31:39.309Z,30.97
2023-04-07T08:34:05.920Z,29.27
2023-04-07T08:36:32.627Z,28.83
2023-04-07T08:39:01.195Z,27.03
2023-04-07T08:41:36.920Z,32.60
2023-04-07T08:44:03.877Z,30.10
2023-04-07T08:46:31.668Z,36.30
2023-04-07T08:48:58.329Z,26.80
2023-04-07T08:51:30.138Z,36.00
2023-04-07T08:54:09.010Z,28.40
2023-04-07T08:56:38.396Z,34.50
2023-04-07T08:59:06.997Z,33.47
2023-04-07T09:01:35.749Z,27.40
2023-04-07T09:04:04.335Z,31.73
2023-04-07T09:06:32.077Z,30.03
2023-04-07T09:08:59.437Z,27.60
2023-04-07T09:11:29.976Z,32.90
2023-04-07T09:13:57.117Z,31.53
2023-04-07T09:16:26.439Z,25.80
2023-04-07T09:18:53.464Z,28.00
2023-04-07T09:21:19.946Z,34.13
2023-04-07T09:23:47.967Z,31.93
2023-04-07T09:26:22.048Z,31.33
2023-04-07T09:29:00.602Z,29.77
2023-04-07T09:31:48.206Z,32.93
2023-04-07T09:34:28.044Z,26.20
2023-04-07T09:36:55.158Z,33.10
2023-04-07T09:39:21.972Z,33.10
2023-04-07T09:41:48.872Z,28.67
2023-04-07T09:44:15.909Z,35.60
2023-04-07T09:46:53.812Z,29.73
2023-04-07T09:49:21.509Z,27.57
2023-04-07T09:52:05.389Z,29.37
2023-04-07T09:54:42.633Z,30.07
2023-04-07T09:57:11.092Z,35.67
2023-04-07T09:59:45.311Z,37.73
2023-04-07T10:02:15.798Z,39.23
2023-04-07T10:04:42.540Z,35.10
2023-04-07T10:07:08.945Z,29.93
2023-04-07T10:09:35.561Z,37.33
2023-04-07T10:12:03.139Z,34.10
2023-04-07T10:14:32.951Z,39.47
2023-04-07T10:17:01.596Z,30.33
2023-04-07T10:19:32.569Z,33.27
2023-04-07T10:22:01.845Z,42.27
2023-04-07T10:25:00.419Z,35.67
2023-04-07T10:27:35.488Z,41.00
2023-04-07T10:30:05.977Z,32.77
2023-04-07T10:32:32.614Z,43.80
2023-04-07T10:35:00.968Z,35.97
2023-04-07T10:37:27.915Z,38.20
2023-04-07T10:40:19.414Z,33.47
2023-04-07T10:42:47.555Z,49.70
2023-04-07T10:45:14.529Z,37.47
2023-04-07T10:47:59.711Z,36.07
2023-04-07T10:50:26.552Z,37.60
2023-04-07T10:53:16.280Z,44.30
2023-04-07T10:55:47.200Z,42.53
2023-04-07T10:58:31.108Z,31.30
2023-04-07T11:01:00.610Z,35.03
2023-04-07T11:03:29.222Z,43.80
2023-04-07T11:06:05.181Z,40.80
2023-04-07T11:08:36.476Z,36.40
2023-04-07T11:11:08.897Z,31.77
2023-04-07T11:13:49.357Z,38.20
2023-04-07T11:16:18.408Z,31.90
2023-04-07T11:18:46.385Z,30.07
2023-04-07T11:21:17.695Z,32.97
2023-04-07T11:23:46.691Z,36.83
2023-04-07T11:26:14.973Z,32.73
2023-04-07T11:28:50.040Z,27.77
2023-04-07T11:31:31.280Z,32.40
2023-04-07T11:34:03.118Z,29.17
2023-04-07T11:36:32.347Z,25.97
2023-04-07T11:39:00.147Z,29.07
2023-04-07T11:41:28.511Z,25.63
2023-04-07T11:44:05.656Z,29.30
2023-04-07T11:46:32.305Z,27.70
2023-04-07T11:49:17.286Z,27.63
2023-04-07T11:51:44.556Z,22.97
2023-04-07T11:54:11.382Z,25.37
2023-04-07T11:56:48.440Z,22.40
2023-04-07T11:59:23.306Z,25.73
2023-04-07T12:01:51.382Z,24.90
2023-04-07T12:04:19.603Z,23.67
2023-04-07T12:06:48.225Z,21.23
2023-04-07T12:09:32.144Z,24.23
2023-04-07T12:11:59.227Z,27.57
2023-04-07T12:14:27.702Z,21.97
2023-04-07T12:16:58.870Z,29.73
2023-04-07T12:19:29.454Z,26.60
2023-04-07T12:21:56.891Z,25.90
2023-04-07T12:24:24.249Z,34.40
2023-04-07T12:26:50.797Z,28.63
2023-04-07T12:29:20.246Z,30.30
2023-04-07T12:31:49.402Z,28.93
2023-04-07T12:34:17.190Z,30.50
2023-04-07T12:36:44.752Z,33.40
2023-04-07T12:39:11.592Z,29.03
2023-04-07T12:41:38.764Z,27.47
2023-04-07T12:44:05.966Z,27.40
2023-04-07T12:46:32.594Z,27.20
2023-04-07T12:48:59.262Z,29.87
2023-04-07T12:51:26.363Z,27.40
2023-04-07T12:53:54.291Z,29.03
2023-04-07T12:56:22.435Z,28.07
2023-04-07T12:58:48.973Z,27.87
2023-04-07T13:01:16.761Z,29.40
2023-04-07T13:03:43.740Z,31.40
2023-04-07T13:06:10.873Z,29.37
2023-04-07T13:08:37.809Z,29.83
2023-04-07T13:11:04.720Z,29.97
2023-04-07T13:13:31.647Z,29.47
2023-04-07T13:15:58.192Z,29.03
2023-04-07T13:18:24.933Z,29.77
2023-04-07T13:21:06.255Z,26.60
2023-04-07T13:23:43.250Z,29.57
2023-04-07T13:26:10.040Z,26.87
2023-04-07T13:28:36.526Z,26.40
2023-04-07T13:31:03.011Z,29.63
2023-04-07T13:33:29.524Z,25.93
2023-04-07T13:35:55.986Z,30.20
2023-04-07T13:38:22.494Z,21.67
2023-04-07T13:40:49.667Z,24.90
2023-04-07T13:43:18.445Z,24.47
2023-04-07T13:45:45.030Z,24.90
2023-04-07T13:48:11.685Z,22.80
2023-04-07T13:50:38.531Z,25.30
2023-04-07T13:53:04.989Z,22.90
2023-04-07T13:55:31.470Z,27.07
2023-04-07T13:57:57.896Z,24.07
2023-04-07T14:00:24.417Z,26.03
2023-04-07T14:02:50.971Z,21.67
2023-04-07T14:05:17.581Z,22.80
2023-04-07T14:07:44.018Z,19.33
2023-04-07T14:10:10.953Z,28.70
2023-04-07T14:12:37.450Z,23.70
2023-04-07T14:15:04.441Z,25.13
2023-04-07T14:17:30.932Z,32.20
2023-04-07T14:19:57.386Z,22.60
2023-04-07T14:22:23.857Z,23.47
2023-04-07T14:24:50.300Z,24.90
2023-04-07T14:27:20.858Z,23.73
2023-04-07T14:29:48.716Z,24.83
2023-04-07T14:32:16.259Z,23.20
2023-04-07T14:34:42.819Z,24.23
2023-04-07T14:37:09.300Z,33.77
2023-04-07T14:39:35.828Z,25.37
2023-04-07T14:42:02.309Z,26.23
2023-04-07T14:44:29.495Z,25.40
2023-04-07T14:46:56.215Z,28.60
2023-04-07T14:49:22.832Z,25.13
2023-04-07T14:51:49.288Z,26.90
2023-04-07T14:54:15.717Z,27.40
2023-04-07T14:56:42.158Z,24.47
2023-04-07T14:59:08.718Z,26.10
2023-04-07T15:01:35.445Z,30.67
2023-04-07T15:04:02.039Z,24.00
2023-04-07T15:06:28.573Z,31.23
2023-04-07T15:08:55.198Z,31.23
2023-04-07T15:11:21.846Z,32.57
2023-04-07T15:13:49.057Z,23.63
2023-04-07T15:16:16.140Z,28.53
2023-04-07T15:18:45.252Z,26.93
2023-04-07T15:21:13.338Z,25.00
2023-04-07T15:23:41.602Z,26.97
2023-04-07T15:26:08.851Z,35.37
2023-04-07T15:28:35.642Z,30.47
2023-04-07T15:31:02.210Z,27.30
2023-04-07T15:33:28.796Z,26.23
2023-04-07T15:35:56.392Z,26.10
2023-04-07T15:38:22.932Z,29.80
2023-04-07T15:40:49.501Z,25.90
2023-04-07T15:43:16.246Z,26.00
2023-04-07T15:45:43.989Z,19.70
2023-04-07T15:48:11.509Z,23.20
2023-04-07T15:50:38.249Z,31.70
2023-04-07T15:53:05.094Z,22.37
2023-04-07T15:55:35.646Z,24.33
2023-04-07T15:58:03.160Z,23.77
2023-04-07T16:00:32.920Z,26.00
2023-04-07T16:03:01.939Z,27.73
2023-04-07T16:05:29.063Z,25.90
2023-04-07T16:07:55.750Z,25.60
2023-04-07T16:10:22.391Z,25.57
2023-04-07T16:12:48.849Z,26.73
2023-04-07T16:15:22.700Z,24.50
2023-04-07T16:17:59.747Z,35.27
2023-04-07T16:20:26.491Z,31.93
2023-04-07T16:22:52.911Z,34.77
2023-04-07T16:25:19.396Z,33.43
2023-04-07T16:27:47.157Z,33.83
2023-04-07T16:30:15.071Z,36.50
2023-04-07T16:32:43.703Z,31.23
2023-04-07T16:35:11.685Z,32.80
2023-04-07T16:37:39.096Z,34.37
2023-04-07T16:40:06.641Z,39.20
2023-04-07T16:42:34.106Z,38.27
2023-04-07T16:45:02.293Z,30.17
2023-04-07T16:47:29.969Z,37.30
2023-04-07T16:49:57.349Z,28.83
2023-04-07T16:52:25.002Z,33.60
2023-04-07T16:54:51.803Z,34.23
2023-04-07T16:57:18.374Z,38.67
2023-04-07T16:59:44.893Z,30.67
2023-04-07T17:02:13.932Z,29.73
2023-04-07T17:04:41.177Z,29.23
2023-04-07T17:07:08.289Z,27.47
2023-04-07T17:09:35.432Z,36.53
2023-04-07T17:12:03.373Z,30.53
2023-04-07T17:14:30.478Z,37.87
2023-04-07T17:16:57.630Z,28.60
2023-04-07T17:19:24.705Z,27.57
2023-04-07T17:21:51.242Z,27.83
2023-04-07T17:24:17.816Z,29.50
2023-04-07T17:26:48.671Z,32.53
2023-04-07T17:29:16.452Z,28.67
2023-04-07T17:31:43.532Z,27.30
2023-04-07T17:34:10.803Z,27.20
2023-04-07T17:36:37.787Z,25.83
2023-04-07T17:39:05.066Z,29.03
2023-04-07T17:41:35.339Z,27.27
2023-04-07T17:44:02.263Z,26.40
2023-04-07T17:46:29.468Z,26.57
2023-04-07T17:48:59.148Z,37.53
2023-04-07T17:51:26.598Z,27.60
2023-04-07T17:53:54.134Z,28.90
2023-04-07T17:56:21.254Z,33.60
2023-04-07T17:58:47.857Z,31.40
2023-04-07T18:01:14.931Z,36.20
2023-04-07T18:03:41.526Z,29.50
2023-04-07T18:06:11.150Z,31.27
2023-04-07T18:08:37.600Z,29.20
2023-04-07T18:11:05.959Z,31.20
2023-04-07T18:13:33.822Z,35.53
2023-04-07T18:16:00.675Z,29.83
2023-04-07T18:18:27.290Z,35.73
2023-04-07T18:20:53.799Z,29.93
2023-04-07T18:23:20.236Z,34.67
2023-04-07T18:25:47.153Z,34.90
2023-04-07T18:28:13.688Z,30.20
2023-04-07T18:30:40.204Z,28.43
2023-04-07T18:33:06.719Z,32.60
2023-04-07T18:35:33.381Z,35.53
2023-04-07T18:38:00.045Z,37.80
2023-04-07T18:40:26.677Z,39.50
2023-04-07T18:42:53.447Z,40.10
2023-04-07T18:45:20.097Z,37.00
2023-04-07T18:47:47.711Z,33.07
2023-04-07T18:50:14.402Z,30.53
2023-04-07T18:52:41.023Z,34.47
2023-04-07T18:55:08.704Z,37.37
2023-04-07T18:57:35.138Z,36.80
2023-04-07T19:00:01.865Z,37.77
2023-04-07T19:02:28.436Z,35.90
2023-04-07T19:04:55.044Z,37.33
2023-04-07T19:07:21.556Z,36.20
2023-04-07T19:09:51.276Z,34.57
2023-04-07T19:12:17.840Z,41.47
2023-04-07T19:14:44.312Z,36.70
2023-04-07T19:17:11.780Z,37.70
2023-04-07T19:19:38.233Z,40.73
2023-04-07T19:22:04.723Z,40.67
2023-04-07T19:24:31.195Z,32.97
2023-04-07T19:26:57.772Z,38.07
2023-04-07T19:29:24.227Z,36.60
2023-04-07T19:31:52.852Z,35.80
2023-04-07T19:34:19.369Z,36.13
2023-04-07T19:36:45.862Z,39.80
2023-04-07T19:39:12.391Z,45.43
2023-04-07T19:41:39.026Z,36.27
2023-04-07T19:44:05.497Z,44.17
2023-04-07T19:46:33.326Z,42.73
2023-04-07T19:48:59.837Z,39.77
2023-04-07T19:51:27.577Z,64.43
2023-04-07T19:53:54.118Z,42.73
2023-04-07T19:56:20.629Z,44.77
2023-04-07T19:58:47.353Z,41.53
2023-04-07T20:01:18.137Z,38.07
2023-04-07T20:03:45.525Z,46.70
2023-04-07T20:06:14.590Z,39.33
2023-04-07T20:08:41.905Z,43.60
2023-04-07T20:11:11.515Z,37.13
2023-04-07T20:13:41.233Z,41.30
2023-04-07T20:16:08.548Z,42.53
2023-04-07T20:18:35.074Z,40.10
2023-04-07T20:21:02.859Z,37.60
2023-04-07T20:23:29.348Z,37.43
2023-04-07T20:25:55.866Z,39.57
2023-04-07T20:28:22.660Z,34.60
2023-04-07T20:30:49.169Z,37.00
2023-04-07T20:33:15.843Z,43.10
2023-04-07T20:35:42.458Z,37.93
2023-04-07T20:38:08.899Z,38.80
2023-04-07T20:40:36.921Z,37.10
2023-04-07T20:43:04.751Z,38.07
2023-04-07T20:45:34.642Z,39.10
2023-04-07T20:48:01.488Z,40.77
2023-04-07T20:50:28.585Z,41.57
2023-04-07T20:52:55.101Z,37.50
2023-04-07T20:55:21.718Z,42.37
2023-04-07T20:57:48.508Z,35.83
2023-04-07T21:00:16.391Z,35.70
2023-04-07T21:02:44.652Z,42.60
2023-04-07T21:05:11.276Z,35.93
2023-04-07T21:07:37.768Z,34.87
2023-04-07T21:10:05.470Z,41.30
2023-04-07T21:12:32.015Z,38.50
2023-04-07T21:14:58.537Z,37.17
2023-04-07T21:17:24.980Z,36.97
2023-04-07T21:19:51.475Z,39.47
2023-04-07T21:22:17.919Z,37.67
2023-04-07T21:24:44.388Z,42.47
2023-04-07T21:27:11.723Z,42.90
2023-04-07T21:29:40.197Z,46.37
2023-04-07T21:32:07.353Z,43.33
2023-04-07T21:34:33.906Z,37.67
2023-04-07T21:37:00.423Z,42.33
2023-04-07T21:39:26.915Z,35.53
2023-04-07T21:41:53.327Z,44.23
2023-04-07T21:44:21.388Z,38.97
2023-04-07T21:46:47.916Z,38.50
2023-04-07T21:49:15.470Z,48.73
2023-04-07T21:51:42.134Z,45.70
2023-04-07T21:54:08.521Z,47.03
2023-04-07T21:56:35.031Z,46.87
2023-04-07T21:59:03.189Z,50.03
2023-04-07T22:01:29.924Z,45.53
2023-04-07T22:03:56.521Z,44.73
2023-04-07T22:06:23.210Z,42.13
2023-04-07T22:11:21.468Z,45.83
2023-04-07T22:13:47.895Z,46.93
2023-04-07T22:16:14.391Z,47.67
2023-04-07T22:18:41.107Z,40.63
2023-04-07T22:21:07.575Z,39.90
2023-04-07T22:23:34.123Z,44.40
2023-04-07T22:26:00.658Z,38.97
2023-04-07T22:28:27.052Z,46.07
2023-04-07T22:30:53.502Z,47.93
2023-04-07T22:33:19.955Z,42.43
2023-04-07T22:35:46.459Z,46.53
2023-04-07T22:38:13.584Z,56.17
2023-04-07T22:40:40.145Z,54.20
2023-04-07T22:43:06.580Z,45.43
2023-04-07T22:45:33.179Z,40.87
2023-04-07T22:47:59.644Z,44.87
2023-04-07T22:50:26.440Z,49.40
2023-04-07T22:52:52.928Z,47.70
2023-04-07T22:55:19.977Z,41.63
2023-04-07T22:57:47.411Z,48.00
2023-04-07T23:00:14.381Z,44.57
2023-04-07T23:02:41.136Z,40.80
2023-04-07T23:05:10.370Z,38.53
2023-04-07T23:07:37.738Z,43.90
2023-04-07T23:10:04.863Z,43.13
2023-04-07T23:12:31.699Z,38.87
2023-04-07T23:14:58.162Z,37.70
2023-04-07T23:17:24.766Z,36.60
2023-04-07T23:19:51.215Z,38.10
2023-04-07T23:22:17.777Z,33.00
2023-04-07T23:24:44.223Z,39.67
2023-04-07T23:27:10.671Z,31.73
2023-04-07T23:29:37.172Z,32.70
2023-04-07T23:32:03.918Z,37.10
2023-04-07T23:34:30.675Z,36.80
2023-04-07T23:36:57.219Z,33.50
2023-04-07T23:39:23.658Z,32.53
2023-04-07T23:41:50.093Z,34.43
2023-04-07T23:44:17.423Z,31.33
2023-04-07T23:46:43.833Z,37.70
2023-04-07T23:49:10.297Z,40.60
2023-04-07T23:51:36.767Z,35.10
2023-04-07T23:54:03.481Z,34.23
2023-04-07T23:56:30.037Z,35.60
2023-04-07T23:58:56.486Z,38.60
